sensor_id;sensor_type;location;lat;lon;timestamp;temperature;humidity
64396;DHT22;50717;53.360;6.290;2023-02-01T00:00:10;6.40;99.90
64396;DHT22;50717;53.360;6.290;2023-02-01T00:02:37;6.40;99.90
64396;DHT22;50717;53.360;6.290;2023-02-01T00:05:07;7.20;99.90
64396;DHT22;50717;53.360;6.290;2023-02-01T00:07:34;6.20;99.90
64396;DHT22;50717;53.360;6.290;2023-02-01T00:09:59;6.40;99.90
64396;DHT22;50717;53.360;6.290;2023-02-01T00:12:25;6.40;99.90
64396;DHT22;50717;53.360;6.290;2023-02-01T00:14:50;6.30;99.90
64396;DHT22;50717;53.360;6.290;2023-02-01T00:17:16;6.50;99.90
64396;DHT22;50717;53.360;6.290;2023-02-01T00:19:42;6.40;99.90
64396;DHT22;50717;53.360;6.290;2023-02-01T00:22:07;6.60;99.90
64396;DHT22;50717;53.360;6.290;2023-02-01T00:24:33;6.40;99.90
64396;DHT22;50717;53.360;6.290;2023-02-01T00:26:59;6.60;99.90
64396;DHT22;50717;53.360;6.290;2023-02-01T00:29:24;6.40;99.90
64396;DHT22;50717;53.360;6.290;2023-02-01T00:31:51;6.60;99.90
64396;DHT22;50717;53.360;6.290;2023-02-01T00:34:18;6.60;99.90
64396;DHT22;50717;53.360;6.290;2023-02-01T00:36:43;6.50;99.90
64396;DHT22;50717;53.360;6.290;2023-02-01T00:39:10;6.70;99.90
64396;DHT22;50717;53.360;6.290;2023-02-01T00:41:35;7.00;99.90
64396;DHT22;50717;53.360;6.290;2023-02-01T00:44:01;6.60;99.90
64396;DHT22;50717;53.360;6.290;2023-02-01T00:46:27;6.50;99.90
64396;DHT22;50717;53.360;6.290;2023-02-01T00:48:54;6.90;99.90
64396;DHT22;50717;53.360;6.290;2023-02-01T00:51:25;6.70;99.90
64396;DHT22;50717;53.360;6.290;2023-02-01T00:53:51;6.10;99.90
64396;DHT22;50717;53.360;6.290;2023-02-01T00:56:17;7.20;99.90
64396;DHT22;50717;53.360;6.290;2023-02-01T00:58:43;6.30;99.90
64396;DHT22;50717;53.360;6.290;2023-02-01T01:01:26;6.40;99.90
64396;DHT22;50717;53.360;6.290;2023-02-01T01:03:54;6.60;99.90
64396;DHT22;50717;53.360;6.290;2023-02-01T01:06:23;6.60;99.90
64396;DHT22;50717;53.360;6.290;2023-02-01T01:08:51;6.10;99.90
64396;DHT22;50717;53.360;6.290;2023-02-01T01:11:19;6.50;99.90
64396;DHT22;50717;53.360;6.290;2023-02-01T01:13:47;6.70;99.90
64396;DHT22;50717;53.360;6.290;2023-02-01T01:16:13;6.90;99.90
64396;DHT22;50717;53.360;6.290;2023-02-01T01:18:39;6.50;99.90
64396;DHT22;50717;53.360;6.290;2023-02-01T01:21:06;6.90;99.90
64396;DHT22;50717;53.360;6.290;2023-02-01T01:23:32;7.10;99.90
64396;DHT22;50717;53.360;6.290;2023-02-01T01:25:58;6.70;99.90
64396;DHT22;50717;53.360;6.290;2023-02-01T01:28:23;6.50;99.90
64396;DHT22;50717;53.360;6.290;2023-02-01T01:30:49;6.60;99.90
64396;DHT22;50717;53.360;6.290;2023-02-01T01:33:15;6.30;99.90
64396;DHT22;50717;53.360;6.290;2023-02-01T01:35:41;6.50;99.90
64396;DHT22;50717;53.360;6.290;2023-02-01T01:38:09;6.00;99.90
64396;DHT22;50717;53.360;6.290;2023-02-01T01:40:35;5.90;99.90
64396;DHT22;50717;53.360;6.290;2023-02-01T01:43:01;6.00;99.90
64396;DHT22;50717;53.360;6.290;2023-02-01T01:45:34;5.80;99.90
64396;DHT22;50717;53.360;6.290;2023-02-01T01:48:06;6.00;99.90
64396;DHT22;50717;53.360;6.290;2023-02-01T01:50:40;5.80;99.90
64396;DHT22;50717;53.360;6.290;2023-02-01T01:53:08;6.00;99.90
64396;DHT22;50717;53.360;6.290;2023-02-01T01:55:38;6.20;99.90
64396;DHT22;50717;53.360;6.290;2023-02-01T01:58:08;5.90;99.90
64396;DHT22;50717;53.360;6.290;2023-02-01T02:00:35;6.20;99.90
64396;DHT22;50717;53.360;6.290;2023-02-01T02:03:15;5.80;99.90
64396;DHT22;50717;53.360;6.290;2023-02-01T02:05:43;5.60;99.90
64396;DHT22;50717;53.360;6.290;2023-02-01T02:08:09;6.70;99.90
64396;DHT22;50717;53.360;6.290;2023-02-01T02:10:36;6.00;99.90
64396;DHT22;50717;53.360;6.290;2023-02-01T02:13:21;5.60;99.90
64396;DHT22;50717;53.360;6.290;2023-02-01T02:16:00;6.20;99.90
64396;DHT22;50717;53.360;6.290;2023-02-01T02:18:36;5.70;99.90
64396;DHT22;50717;53.360;6.290;2023-02-01T02:21:09;6.00;99.90
64396;DHT22;50717;53.360;6.290;2023-02-01T02:23:59;5.80;99.90
64396;DHT22;50717;53.360;6.290;2023-02-01T02:26:49;5.90;99.90
64396;DHT22;50717;53.360;6.290;2023-02-01T02:36:20;5.80;99.90
64396;DHT22;50717;53.360;6.290;2023-02-01T02:41:57;5.90;99.90
64396;DHT22;50717;53.360;6.290;2023-02-01T02:44:27;6.10;99.90
64396;DHT22;50717;53.360;6.290;2023-02-01T02:50:27;6.20;99.90
64396;DHT22;50717;53.360;6.290;2023-02-01T02:53:17;6.20;99.90
64396;DHT22;50717;53.360;6.290;2023-02-01T02:56:04;6.30;99.90
64396;DHT22;50717;53.360;6.290;2023-02-01T02:58:50;6.20;99.90
64396;DHT22;50717;53.360;6.290;2023-02-01T03:01:36;6.30;99.90
64396;DHT22;50717;53.360;6.290;2023-02-01T03:04:21;6.50;99.90
64396;DHT22;50717;53.360;6.290;2023-02-01T03:06:49;6.40;99.90
64396;DHT22;50717;53.360;6.290;2023-02-01T03:09:31;6.40;99.90
64396;DHT22;50717;53.360;6.290;2023-02-01T03:12:07;6.40;99.90
64396;DHT22;50717;53.360;6.290;2023-02-01T03:14:59;6.20;99.90
64396;DHT22;50717;53.360;6.290;2023-02-01T03:17:30;6.30;99.90
64396;DHT22;50717;53.360;6.290;2023-02-01T03:20:00;6.30;99.90
64396;DHT22;50717;53.360;6.290;2023-02-01T03:22:28;6.50;99.90
64396;DHT22;50717;53.360;6.290;2023-02-01T03:25:10;6.60;99.90
64396;DHT22;50717;53.360;6.290;2023-02-01T03:27:38;6.50;99.90
64396;DHT22;50717;53.360;6.290;2023-02-01T03:30:09;6.30;99.90
64396;DHT22;50717;53.360;6.290;2023-02-01T03:32:36;6.30;99.90
64396;DHT22;50717;53.360;6.290;2023-02-01T03:38:08;6.10;99.90
64396;DHT22;50717;53.360;6.290;2023-02-01T03:40:37;5.80;99.90
64396;DHT22;50717;53.360;6.290;2023-02-01T03:43:06;6.00;99.90
64396;DHT22;50717;53.360;6.290;2023-02-01T03:45:38;6.10;99.90
64396;DHT22;50717;53.360;6.290;2023-02-01T03:48:07;6.00;99.90
64396;DHT22;50717;53.360;6.290;2023-02-01T03:50:35;5.90;99.90
64396;DHT22;50717;53.360;6.290;2023-02-01T03:53:08;6.00;99.90
64396;DHT22;50717;53.360;6.290;2023-02-01T03:55:36;6.00;99.90
64396;DHT22;50717;53.360;6.290;2023-02-01T03:58:06;6.10;99.90
64396;DHT22;50717;53.360;6.290;2023-02-01T04:00:33;6.10;99.90
64396;DHT22;50717;53.360;6.290;2023-02-01T04:02:59;6.10;99.90
64396;DHT22;50717;53.360;6.290;2023-02-01T04:05:25;6.20;99.90
64396;DHT22;50717;53.360;6.290;2023-02-01T04:07:50;6.10;99.90
64396;DHT22;50717;53.360;6.290;2023-02-01T04:10:16;6.00;99.90
64396;DHT22;50717;53.360;6.290;2023-02-01T04:12:42;6.50;99.90
64396;DHT22;50717;53.360;6.290;2023-02-01T04:15:08;6.60;99.90
64396;DHT22;50717;53.360;6.290;2023-02-01T04:17:34;6.20;99.90
64396;DHT22;50717;53.360;6.290;2023-02-01T04:19:59;6.20;99.90
64396;DHT22;50717;53.360;6.290;2023-02-01T04:22:25;6.00;99.90
64396;DHT22;50717;53.360;6.290;2023-02-01T04:24:51;6.20;99.90
64396;DHT22;50717;53.360;6.290;2023-02-01T04:27:16;5.90;99.90
64396;DHT22;50717;53.360;6.290;2023-02-01T04:29:42;6.20;99.90
64396;DHT22;50717;53.360;6.290;2023-02-01T04:32:08;6.20;99.90
64396;DHT22;50717;53.360;6.290;2023-02-01T04:34:33;6.20;99.90
64396;DHT22;50717;53.360;6.290;2023-02-01T04:36:59;6.40;99.90
64396;DHT22;50717;53.360;6.290;2023-02-01T04:39:25;6.20;99.90
64396;DHT22;50717;53.360;6.290;2023-02-01T04:41:50;6.20;99.90
64396;DHT22;50717;53.360;6.290;2023-02-01T04:44:17;6.70;99.90
64396;DHT22;50717;53.360;6.290;2023-02-01T04:46:44;6.20;99.90
64396;DHT22;50717;53.360;6.290;2023-02-01T04:49:11;6.40;99.90
64396;DHT22;50717;53.360;6.290;2023-02-01T04:51:37;6.80;99.90
64396;DHT22;50717;53.360;6.290;2023-02-01T04:54:03;6.20;99.90
64396;DHT22;50717;53.360;6.290;2023-02-01T04:56:28;6.10;99.90
64396;DHT22;50717;53.360;6.290;2023-02-01T04:58:54;6.00;99.90
64396;DHT22;50717;53.360;6.290;2023-02-01T05:01:21;6.50;99.90
64396;DHT22;50717;53.360;6.290;2023-02-01T05:03:47;6.30;99.90
64396;DHT22;50717;53.360;6.290;2023-02-01T05:06:13;6.70;99.90
64396;DHT22;50717;53.360;6.290;2023-02-01T05:08:38;6.20;99.90
64396;DHT22;50717;53.360;6.290;2023-02-01T05:11:04;6.80;99.90
64396;DHT22;50717;53.360;6.290;2023-02-01T05:13:30;6.50;99.90
64396;DHT22;50717;53.360;6.290;2023-02-01T05:16:15;6.20;99.90
64396;DHT22;50717;53.360;6.290;2023-02-01T05:18:41;6.40;99.90
64396;DHT22;50717;53.360;6.290;2023-02-01T05:21:06;6.40;99.90
64396;DHT22;50717;53.360;6.290;2023-02-01T05:23:32;6.50;99.90
64396;DHT22;50717;53.360;6.290;2023-02-01T05:26:18;6.40;99.90
64396;DHT22;50717;53.360;6.290;2023-02-01T05:28:44;6.50;99.90
64396;DHT22;50717;53.360;6.290;2023-02-01T05:31:10;6.60;99.90
64396;DHT22;50717;53.360;6.290;2023-02-01T05:33:36;6.60;99.90
64396;DHT22;50717;53.360;6.290;2023-02-01T05:36:02;6.70;99.90
64396;DHT22;50717;53.360;6.290;2023-02-01T05:38:27;6.80;99.90
64396;DHT22;50717;53.360;6.290;2023-02-01T05:40:55;6.60;99.90
64396;DHT22;50717;53.360;6.290;2023-02-01T05:43:21;6.50;99.90
64396;DHT22;50717;53.360;6.290;2023-02-01T05:45:47;6.30;99.90
64396;DHT22;50717;53.360;6.290;2023-02-01T05:48:12;6.80;99.90
64396;DHT22;50717;53.360;6.290;2023-02-01T05:50:38;6.60;99.90
64396;DHT22;50717;53.360;6.290;2023-02-01T05:53:04;6.50;99.90
64396;DHT22;50717;53.360;6.290;2023-02-01T05:55:30;6.50;99.90
64396;DHT22;50717;53.360;6.290;2023-02-01T05:57:56;6.40;99.90
64396;DHT22;50717;53.360;6.290;2023-02-01T06:00:22;6.60;99.90
64396;DHT22;50717;53.360;6.290;2023-02-01T06:02:47;6.60;99.90
64396;DHT22;50717;53.360;6.290;2023-02-01T06:05:13;6.70;99.90
64396;DHT22;50717;53.360;6.290;2023-02-01T06:07:39;6.40;99.90
64396;DHT22;50717;53.360;6.290;2023-02-01T06:10:05;6.20;99.90
64396;DHT22;50717;53.360;6.290;2023-02-01T06:12:30;6.30;99.90
64396;DHT22;50717;53.360;6.290;2023-02-01T06:14:56;6.40;99.90
64396;DHT22;50717;53.360;6.290;2023-02-01T06:17:24;6.50;99.90
64396;DHT22;50717;53.360;6.290;2023-02-01T06:19:50;6.70;99.90
64396;DHT22;50717;53.360;6.290;2023-02-01T06:22:16;6.60;99.90
64396;DHT22;50717;53.360;6.290;2023-02-01T06:24:42;6.30;99.90
64396;DHT22;50717;53.360;6.290;2023-02-01T06:27:08;6.40;99.90
64396;DHT22;50717;53.360;6.290;2023-02-01T06:29:35;6.40;99.90
64396;DHT22;50717;53.360;6.290;2023-02-01T06:32:00;6.50;99.90
64396;DHT22;50717;53.360;6.290;2023-02-01T06:34:26;6.60;99.90
64396;DHT22;50717;53.360;6.290;2023-02-01T06:36:52;6.50;99.90
64396;DHT22;50717;53.360;6.290;2023-02-01T06:39:18;6.50;99.90
64396;DHT22;50717;53.360;6.290;2023-02-01T06:41:47;6.50;99.90
64396;DHT22;50717;53.360;6.290;2023-02-01T06:44:14;6.60;99.90
64396;DHT22;50717;53.360;6.290;2023-02-01T06:46:39;6.60;99.90
64396;DHT22;50717;53.360;6.290;2023-02-01T06:49:05;6.70;99.90
64396;DHT22;50717;53.360;6.290;2023-02-01T06:51:31;6.80;99.90
64396;DHT22;50717;53.360;6.290;2023-02-01T06:53:57;6.70;99.90
64396;DHT22;50717;53.360;6.290;2023-02-01T06:56:23;7.10;99.90
64396;DHT22;50717;53.360;6.290;2023-02-01T06:58:49;6.80;99.90
64396;DHT22;50717;53.360;6.290;2023-02-01T07:01:15;6.70;99.90
64396;DHT22;50717;53.360;6.290;2023-02-01T07:03:41;6.60;99.90
64396;DHT22;50717;53.360;6.290;2023-02-01T07:06:07;6.70;99.90
64396;DHT22;50717;53.360;6.290;2023-02-01T07:08:35;6.60;99.90
64396;DHT22;50717;53.360;6.290;2023-02-01T07:11:10;6.70;99.90
64396;DHT22;50717;53.360;6.290;2023-02-01T07:13:36;6.20;99.90
64396;DHT22;50717;53.360;6.290;2023-02-01T07:16:04;6.40;99.90
64396;DHT22;50717;53.360;6.290;2023-02-01T07:18:31;6.40;99.90
64396;DHT22;50717;53.360;6.290;2023-02-01T07:20:57;6.60;99.90
64396;DHT22;50717;53.360;6.290;2023-02-01T07:23:23;6.20;99.90
64396;DHT22;50717;53.360;6.290;2023-02-01T07:25:53;6.60;99.90
64396;DHT22;50717;53.360;6.290;2023-02-01T07:28:19;6.20;99.90
64396;DHT22;50717;53.360;6.290;2023-02-01T07:30:45;6.00;99.90
64396;DHT22;50717;53.360;6.290;2023-02-01T07:33:20;6.80;99.90
64396;DHT22;50717;53.360;6.290;2023-02-01T07:35:47;6.60;99.90
64396;DHT22;50717;53.360;6.290;2023-02-01T07:38:12;6.40;99.90
64396;DHT22;50717;53.360;6.290;2023-02-01T07:40:38;6.40;99.90
64396;DHT22;50717;53.360;6.290;2023-02-01T07:43:04;6.50;99.90
64396;DHT22;50717;53.360;6.290;2023-02-01T07:45:31;6.30;99.90
64396;DHT22;50717;53.360;6.290;2023-02-01T07:47:57;6.00;99.90
64396;DHT22;50717;53.360;6.290;2023-02-01T07:50:23;6.40;99.90
64396;DHT22;50717;53.360;6.290;2023-02-01T07:52:48;6.50;99.90
64396;DHT22;50717;53.360;6.290;2023-02-01T07:55:14;6.50;99.90
64396;DHT22;50717;53.360;6.290;2023-02-01T07:57:40;6.60;99.90
64396;DHT22;50717;53.360;6.290;2023-02-01T08:00:06;6.40;99.90
64396;DHT22;50717;53.360;6.290;2023-02-01T08:02:50;6.60;99.90
64396;DHT22;50717;53.360;6.290;2023-02-01T08:05:16;6.80;99.90
64396;DHT22;50717;53.360;6.290;2023-02-01T08:07:42;6.40;99.90
64396;DHT22;50717;53.360;6.290;2023-02-01T08:10:08;6.60;99.90
64396;DHT22;50717;53.360;6.290;2023-02-01T08:12:36;6.60;99.90
64396;DHT22;50717;53.360;6.290;2023-02-01T08:15:03;6.70;99.90
64396;DHT22;50717;53.360;6.290;2023-02-01T08:17:29;6.60;99.90
64396;DHT22;50717;53.360;6.290;2023-02-01T08:19:54;6.70;99.90
64396;DHT22;50717;53.360;6.290;2023-02-01T08:22:21;6.80;99.90
64396;DHT22;50717;53.360;6.290;2023-02-01T08:24:50;6.70;99.90
64396;DHT22;50717;53.360;6.290;2023-02-01T08:27:16;6.80;99.90
64396;DHT22;50717;53.360;6.290;2023-02-01T08:29:41;6.60;99.90
64396;DHT22;50717;53.360;6.290;2023-02-01T08:32:07;6.50;99.90
64396;DHT22;50717;53.360;6.290;2023-02-01T08:34:33;6.70;99.90
64396;DHT22;50717;53.360;6.290;2023-02-01T08:36:58;6.60;99.90
64396;DHT22;50717;53.360;6.290;2023-02-01T08:39:25;6.30;99.90
64396;DHT22;50717;53.360;6.290;2023-02-01T08:41:51;6.80;99.90
64396;DHT22;50717;53.360;6.290;2023-02-01T08:44:42;6.40;99.90
64396;DHT22;50717;53.360;6.290;2023-02-01T08:47:08;6.70;99.90
64396;DHT22;50717;53.360;6.290;2023-02-01T08:49:34;6.70;99.90
64396;DHT22;50717;53.360;6.290;2023-02-01T08:51:59;6.70;99.90
64396;DHT22;50717;53.360;6.290;2023-02-01T08:54:25;6.50;99.90
64396;DHT22;50717;53.360;6.290;2023-02-01T08:56:51;6.60;99.90
64396;DHT22;50717;53.360;6.290;2023-02-01T08:59:16;6.60;99.90
64396;DHT22;50717;53.360;6.290;2023-02-01T09:01:42;6.50;99.90
64396;DHT22;50717;53.360;6.290;2023-02-01T09:04:08;6.60;99.90
64396;DHT22;50717;53.360;6.290;2023-02-01T09:06:33;6.40;99.90
64396;DHT22;50717;53.360;6.290;2023-02-01T09:08:59;7.00;99.90
64396;DHT22;50717;53.360;6.290;2023-02-01T09:11:25;6.60;99.90
64396;DHT22;50717;53.360;6.290;2023-02-01T09:13:51;6.70;99.90
64396;DHT22;50717;53.360;6.290;2023-02-01T09:16:16;6.90;99.90
64396;DHT22;50717;53.360;6.290;2023-02-01T09:18:42;6.80;99.90
64396;DHT22;50717;53.360;6.290;2023-02-01T09:21:08;6.30;99.90
64396;DHT22;50717;53.360;6.290;2023-02-01T09:23:34;6.90;99.90
64396;DHT22;50717;53.360;6.290;2023-02-01T09:26:03;6.70;99.90
64396;DHT22;50717;53.360;6.290;2023-02-01T09:28:30;7.60;99.90
64396;DHT22;50717;53.360;6.290;2023-02-01T09:31:00;6.70;99.90
64396;DHT22;50717;53.360;6.290;2023-02-01T09:33:27;6.50;99.90
64396;DHT22;50717;53.360;6.290;2023-02-01T09:35:58;6.90;99.90
64396;DHT22;50717;53.360;6.290;2023-02-01T09:38:23;7.10;99.90
64396;DHT22;50717;53.360;6.290;2023-02-01T09:40:51;6.70;99.90
64396;DHT22;50717;53.360;6.290;2023-02-01T09:48:44;6.70;99.90
64396;DHT22;50717;53.360;6.290;2023-02-01T09:51:16;6.50;99.90
64396;DHT22;50717;53.360;6.290;2023-02-01T09:53:46;6.50;99.90
64396;DHT22;50717;53.360;6.290;2023-02-01T09:56:18;6.50;99.90
64396;DHT22;50717;53.360;6.290;2023-02-01T10:01:40;6.10;99.90
64396;DHT22;50717;53.360;6.290;2023-02-01T10:04:08;6.40;99.90
64396;DHT22;50717;53.360;6.290;2023-02-01T10:10:15;6.20;99.90
64396;DHT22;50717;53.360;6.290;2023-02-01T10:28:56;6.60;99.90
64396;DHT22;50717;53.360;6.290;2023-02-01T10:31:25;6.70;99.90
64396;DHT22;50717;53.360;6.290;2023-02-01T10:33:56;6.70;99.90
64396;DHT22;50717;53.360;6.290;2023-02-01T10:36:45;6.90;99.90
64396;DHT22;50717;53.360;6.290;2023-02-01T10:39:15;6.70;99.90
64396;DHT22;50717;53.360;6.290;2023-02-01T10:41:40;7.00;99.90
64396;DHT22;50717;53.360;6.290;2023-02-01T10:44:13;7.10;99.90
64396;DHT22;50717;53.360;6.290;2023-02-01T10:46:39;7.60;99.90
64396;DHT22;50717;53.360;6.290;2023-02-01T10:49:08;7.30;99.90
64396;DHT22;50717;53.360;6.290;2023-02-01T10:51:43;7.40;99.90
64396;DHT22;50717;53.360;6.290;2023-02-01T10:54:17;7.50;99.90
64396;DHT22;50717;53.360;6.290;2023-02-01T10:56:45;7.40;99.90
64396;DHT22;50717;53.360;6.290;2023-02-01T10:59:16;7.90;99.90
64396;DHT22;50717;53.360;6.290;2023-02-01T11:01:44;7.60;99.90
64396;DHT22;50717;53.360;6.290;2023-02-01T11:04:15;7.40;99.90
64396;DHT22;50717;53.360;6.290;2023-02-01T11:06:44;7.40;99.90
64396;DHT22;50717;53.360;6.290;2023-02-01T11:09:14;7.30;99.90
64396;DHT22;50717;53.360;6.290;2023-02-01T11:17:00;6.50;99.90
64396;DHT22;50717;53.360;6.290;2023-02-01T11:19:27;6.00;99.90
64396;DHT22;50717;53.360;6.290;2023-02-01T11:21:58;5.30;99.90
64396;DHT22;50717;53.360;6.290;2023-02-01T11:24:31;5.30;99.90
64396;DHT22;50717;53.360;6.290;2023-02-01T11:27:00;5.00;99.90
64396;DHT22;50717;53.360;6.290;2023-02-01T11:29:31;4.50;99.90
64396;DHT22;50717;53.360;6.290;2023-02-01T11:31:59;4.10;99.90
64396;DHT22;50717;53.360;6.290;2023-02-01T11:37:02;4.60;99.90
64396;DHT22;50717;53.360;6.290;2023-02-01T11:39:33;4.60;99.90
64396;DHT22;50717;53.360;6.290;2023-02-01T11:42:13;4.50;99.90
64396;DHT22;50717;53.360;6.290;2023-02-01T11:44:44;4.30;99.90
64396;DHT22;50717;53.360;6.290;2023-02-01T11:47:31;5.00;99.90
64396;DHT22;50717;53.360;6.290;2023-02-01T11:50:16;4.90;99.90
64396;DHT22;50717;53.360;6.290;2023-02-01T12:06:18;5.80;99.90
64396;DHT22;50717;53.360;6.290;2023-02-01T12:09:00;6.20;99.90
64396;DHT22;50717;53.360;6.290;2023-02-01T12:17:45;6.00;99.90
64396;DHT22;50717;53.360;6.290;2023-02-01T12:23:21;7.20;99.90
64396;DHT22;50717;53.360;6.290;2023-02-01T12:39:57;8.20;99.90
64396;DHT22;50717;53.360;6.290;2023-02-01T12:42:33;8.00;99.90
64396;DHT22;50717;53.360;6.290;2023-02-01T12:45:12;8.20;99.90
64396;DHT22;50717;53.360;6.290;2023-02-01T12:48:05;8.30;99.90
64396;DHT22;50717;53.360;6.290;2023-02-01T12:53:17;8.50;99.90
64396;DHT22;50717;53.360;6.290;2023-02-01T12:56:10;7.60;99.90
64396;DHT22;50717;53.360;6.290;2023-02-01T12:58:49;8.10;99.90
64396;DHT22;50717;53.360;6.290;2023-02-01T13:04:15;7.80;99.90
64396;DHT22;50717;53.360;6.290;2023-02-01T13:06:59;8.30;99.90
64396;DHT22;50717;53.360;6.290;2023-02-01T13:11:54;8.10;99.90
64396;DHT22;50717;53.360;6.290;2023-02-01T13:14:58;8.20;99.90
64396;DHT22;50717;53.360;6.290;2023-02-01T13:17:31;8.30;99.90
64396;DHT22;50717;53.360;6.290;2023-02-01T13:20:19;7.90;99.90
64396;DHT22;50717;53.360;6.290;2023-02-01T13:23:01;8.00;99.90
64396;DHT22;50717;53.360;6.290;2023-02-01T13:42:28;8.30;99.90
64396;DHT22;50717;53.360;6.290;2023-02-01T13:45:17;8.20;99.90
64396;DHT22;50717;53.360;6.290;2023-02-01T13:47:47;7.80;99.90
64396;DHT22;50717;53.360;6.290;2023-02-01T13:52:45;9.10;99.90
64396;DHT22;50717;53.360;6.290;2023-02-01T13:55:34;8.20;99.90
64396;DHT22;50717;53.360;6.290;2023-02-01T14:09:16;8.10;99.90
64396;DHT22;50717;53.360;6.290;2023-02-01T14:11:54;7.70;99.90
64396;DHT22;50717;53.360;6.290;2023-02-01T14:19:24;7.60;99.90
64396;DHT22;50717;53.360;6.290;2023-02-01T14:21:55;8.10;99.90
64396;DHT22;50717;53.360;6.290;2023-02-01T14:24:32;7.80;99.90
64396;DHT22;50717;53.360;6.290;2023-02-01T14:27:18;7.90;99.90
64396;DHT22;50717;53.360;6.290;2023-02-01T14:29:53;8.30;99.90
64396;DHT22;50717;53.360;6.290;2023-02-01T14:32:36;8.20;99.90
64396;DHT22;50717;53.360;6.290;2023-02-01T14:35:07;8.30;99.90
64396;DHT22;50717;53.360;6.290;2023-02-01T14:37:38;8.10;99.90
64396;DHT22;50717;53.360;6.290;2023-02-01T15:00:55;7.60;99.90
64396;DHT22;50717;53.360;6.290;2023-02-01T15:06:01;7.80;99.90
64396;DHT22;50717;53.360;6.290;2023-02-01T15:08:37;7.80;99.90
64396;DHT22;50717;53.360;6.290;2023-02-01T15:11:15;8.40;99.90
64396;DHT22;50717;53.360;6.290;2023-02-01T15:13:49;8.00;99.90
64396;DHT22;50717;53.360;6.290;2023-02-01T15:16:17;7.70;99.90
64396;DHT22;50717;53.360;6.290;2023-02-01T15:18:42;7.80;99.90
64396;DHT22;50717;53.360;6.290;2023-02-01T15:21:18;7.90;99.90
64396;DHT22;50717;53.360;6.290;2023-02-01T15:23:44;9.20;99.90
64396;DHT22;50717;53.360;6.290;2023-02-01T15:26:27;8.00;99.90
64396;DHT22;50717;53.360;6.290;2023-02-01T15:28:53;7.80;99.90
64396;DHT22;50717;53.360;6.290;2023-02-01T15:31:33;7.50;99.90
64396;DHT22;50717;53.360;6.290;2023-02-01T15:33:59;8.50;99.90
64396;DHT22;50717;53.360;6.290;2023-02-01T15:36:24;7.80;99.90
64396;DHT22;50717;53.360;6.290;2023-02-01T15:41:49;7.50;99.90
64396;DHT22;50717;53.360;6.290;2023-02-01T15:46:48;7.40;99.90
64396;DHT22;50717;53.360;6.290;2023-02-01T15:49:31;7.60;99.90
64396;DHT22;50717;53.360;6.290;2023-02-01T15:52:00;7.50;99.90
64396;DHT22;50717;53.360;6.290;2023-02-01T15:54:30;7.40;99.90
64396;DHT22;50717;53.360;6.290;2023-02-01T15:56:59;7.30;99.90
64396;DHT22;50717;53.360;6.290;2023-02-01T15:59:40;7.50;99.90
64396;DHT22;50717;53.360;6.290;2023-02-01T16:03:23;7.60;99.90
64396;DHT22;50717;53.360;6.290;2023-02-01T16:08:17;7.50;99.90
64396;DHT22;50717;53.360;6.290;2023-02-01T16:10:48;7.00;99.90
64396;DHT22;50717;53.360;6.290;2023-02-01T16:13:15;7.40;99.90
64396;DHT22;50717;53.360;6.290;2023-02-01T16:15:42;7.20;99.90
64396;DHT22;50717;53.360;6.290;2023-02-01T16:18:10;7.10;99.90
64396;DHT22;50717;53.360;6.290;2023-02-01T16:20:37;7.60;99.90
64396;DHT22;50717;53.360;6.290;2023-02-01T16:23:04;7.50;99.90
64396;DHT22;50717;53.360;6.290;2023-02-01T16:25:30;7.00;99.90
64396;DHT22;50717;53.360;6.290;2023-02-01T16:27:56;8.10;99.90
64396;DHT22;50717;53.360;6.290;2023-02-01T16:30:24;7.00;99.90
64396;DHT22;50717;53.360;6.290;2023-02-01T16:32:53;7.00;99.90
64396;DHT22;50717;53.360;6.290;2023-02-01T16:35:29;7.30;99.90
64396;DHT22;50717;53.360;6.290;2023-02-01T16:37:57;7.20;99.90
64396;DHT22;50717;53.360;6.290;2023-02-01T16:40:23;7.60;99.90
64396;DHT22;50717;53.360;6.290;2023-02-01T16:42:51;7.10;99.90
64396;DHT22;50717;53.360;6.290;2023-02-01T16:45:18;6.90;99.90
64396;DHT22;50717;53.360;6.290;2023-02-01T16:47:48;6.80;99.90
64396;DHT22;50717;53.360;6.290;2023-02-01T16:50:18;7.00;99.90
64396;DHT22;50717;53.360;6.290;2023-02-01T16:52:46;7.00;99.90
64396;DHT22;50717;53.360;6.290;2023-02-01T16:55:13;7.30;99.90
64396;DHT22;50717;53.360;6.290;2023-02-01T16:57:39;7.20;99.90
64396;DHT22;50717;53.360;6.290;2023-02-01T17:00:06;6.90;99.90
64396;DHT22;50717;53.360;6.290;2023-02-01T17:02:32;6.80;99.90
64396;DHT22;50717;53.360;6.290;2023-02-01T17:04:58;7.00;99.90
64396;DHT22;50717;53.360;6.290;2023-02-01T17:07:23;7.20;99.90
64396;DHT22;50717;53.360;6.290;2023-02-01T17:09:49;6.70;99.90
64396;DHT22;50717;53.360;6.290;2023-02-01T17:12:24;7.20;99.90
64396;DHT22;50717;53.360;6.290;2023-02-01T17:14:51;7.40;99.90
64396;DHT22;50717;53.360;6.290;2023-02-01T17:17:18;7.00;99.90
64396;DHT22;50717;53.360;6.290;2023-02-01T17:19:50;7.10;99.90
64396;DHT22;50717;53.360;6.290;2023-02-01T17:22:20;7.00;99.90
64396;DHT22;50717;53.360;6.290;2023-02-01T17:24:46;7.50;99.90
64396;DHT22;50717;53.360;6.290;2023-02-01T17:27:12;7.80;99.90
64396;DHT22;50717;53.360;6.290;2023-02-01T17:29:37;7.00;99.90
64396;DHT22;50717;53.360;6.290;2023-02-01T17:32:04;7.80;99.90
64396;DHT22;50717;53.360;6.290;2023-02-01T17:34:29;7.10;99.90
64396;DHT22;50717;53.360;6.290;2023-02-01T17:36:55;6.60;99.90
64396;DHT22;50717;53.360;6.290;2023-02-01T17:39:21;6.90;99.90
64396;DHT22;50717;53.360;6.290;2023-02-01T17:42:10;6.70;99.90
64396;DHT22;50717;53.360;6.290;2023-02-01T17:44:36;7.40;99.90
64396;DHT22;50717;53.360;6.290;2023-02-01T17:47:02;8.10;99.90
64396;DHT22;50717;53.360;6.290;2023-02-01T17:49:27;7.00;99.90
64396;DHT22;50717;53.360;6.290;2023-02-01T17:51:54;6.70;99.90
64396;DHT22;50717;53.360;6.290;2023-02-01T17:54:20;8.00;99.90
64396;DHT22;50717;53.360;6.290;2023-02-01T17:56:46;6.80;99.90
64396;DHT22;50717;53.360;6.290;2023-02-01T17:59:15;7.30;99.90
64396;DHT22;50717;53.360;6.290;2023-02-01T18:01:42;7.10;99.90
64396;DHT22;50717;53.360;6.290;2023-02-01T18:04:16;8.40;99.90
64396;DHT22;50717;53.360;6.290;2023-02-01T18:06:43;7.50;99.90
64396;DHT22;50717;53.360;6.290;2023-02-01T18:09:09;7.80;99.90
64396;DHT22;50717;53.360;6.290;2023-02-01T18:11:35;7.10;99.90
64396;DHT22;50717;53.360;6.290;2023-02-01T18:14:01;7.10;99.90
64396;DHT22;50717;53.360;6.290;2023-02-01T18:16:32;7.30;99.90
64396;DHT22;50717;53.360;6.290;2023-02-01T18:18:58;7.00;99.90
64396;DHT22;50717;53.360;6.290;2023-02-01T18:21:43;7.60;99.90
64396;DHT22;50717;53.360;6.290;2023-02-01T18:24:12;7.00;99.90
64396;DHT22;50717;53.360;6.290;2023-02-01T18:26:39;6.60;99.90
64396;DHT22;50717;53.360;6.290;2023-02-01T18:29:05;6.70;99.90
64396;DHT22;50717;53.360;6.290;2023-02-01T18:31:31;7.10;99.90
64396;DHT22;50717;53.360;6.290;2023-02-01T18:33:59;7.90;99.90
64396;DHT22;50717;53.360;6.290;2023-02-01T18:36:26;6.60;99.90
64396;DHT22;50717;53.360;6.290;2023-02-01T18:38:52;6.60;99.90
64396;DHT22;50717;53.360;6.290;2023-02-01T18:41:23;6.50;99.90
64396;DHT22;50717;53.360;6.290;2023-02-01T18:43:50;7.00;99.90